McFall, Missouri
Current Conditions -  °F | °C
As of 10:02 AM on Saturday 22 Nov 2014 (Local Time) from KLWD Reporting Station
Haze Haze  
Wind Chill: 41°   Ceiling: 300
Heat Index: 45°   Visibility: 1mi
Dew Point: 44°   Wind: 8mph
Humidity: 97%   Direction: 190°S
Pressure: 29.91"   Gusts: NA
Location:  40.11°N, 94.22°W
Report Text: KLWD 221602Z AUTO 19007KT 1SM BR OVC003 07/07 A2991 RMK AO2 T00720067
Loading
Personal Weather Stations






























Interactive Weather Map New forecast layout! Learn more

10-Day Weather Forecast

Advertisements
Track Severe Weather on mobile